sensor_id;sensor_type;location;lat;lon;timestamp;P1;durP1;ratioP1;P2;durP2;ratioP2
44822;SDS011;51097;51.984;5.650;2023-07-13T00:01:29;7.80;;;2.80;;
44822;SDS011;51097;51.984;5.650;2023-07-13T00:03:56;8.27;;;3.03;;
44822;SDS011;51097;51.984;5.650;2023-07-13T00:06:22;6.85;;;2.65;;
44822;SDS011;51097;51.984;5.650;2023-07-13T00:08:48;10.82;;;4.07;;
44822;SDS011;51097;51.984;5.650;2023-07-13T00:11:14;4.75;;;2.58;;
44822;SDS011;51097;51.984;5.650;2023-07-13T00:13:41;6.35;;;3.13;;
44822;SDS011;51097;51.984;5.650;2023-07-13T00:16:08;8.48;;;2.20;;
44822;SDS011;51097;51.984;5.650;2023-07-13T00:18:35;9.65;;;2.45;;
44822;SDS011;51097;51.984;5.650;2023-07-13T00:21:00;4.10;;;2.33;;
44822;SDS011;51097;51.984;5.650;2023-07-13T00:23:37;5.25;;;2.20;;
44822;SDS011;51097;51.984;5.650;2023-07-13T00:26:05;5.53;;;2.50;;
44822;SDS011;51097;51.984;5.650;2023-07-13T00:28:33;7.55;;;2.25;;
44822;SDS011;51097;51.984;5.650;2023-07-13T00:31:00;6.68;;;2.83;;
44822;SDS011;51097;51.984;5.650;2023-07-13T00:33:27;6.05;;;2.28;;
44822;SDS011;51097;51.984;5.650;2023-07-13T00:35:54;6.72;;;1.80;;
44822;SDS011;51097;51.984;5.650;2023-07-13T00:38:21;5.32;;;1.90;;
44822;SDS011;51097;51.984;5.650;2023-07-13T00:40:48;6.82;;;2.40;;
44822;SDS011;51097;51.984;5.650;2023-07-13T00:43:15;11.85;;;2.55;;
44822;SDS011;51097;51.984;5.650;2023-07-13T00:48:09;8.27;;;2.58;;
44822;SDS011;51097;51.984;5.650;2023-07-13T00:50:36;5.57;;;2.45;;
44822;SDS011;51097;51.984;5.650;2023-07-13T00:53:03;6.03;;;2.03;;
44822;SDS011;51097;51.984;5.650;2023-07-13T00:55:29;10.35;;;2.67;;
44822;SDS011;51097;51.984;5.650;2023-07-13T00:57:55;3.53;;;2.22;;
44822;SDS011;51097;51.984;5.650;2023-07-13T01:00:21;7.82;;;2.70;;
44822;SDS011;51097;51.984;5.650;2023-07-13T01:02:47;8.77;;;2.03;;
44822;SDS011;51097;51.984;5.650;2023-07-13T01:05:19;8.48;;;2.70;;
44822;SDS011;51097;51.984;5.650;2023-07-13T01:07:46;6.05;;;1.77;;
44822;SDS011;51097;51.984;5.650;2023-07-13T01:10:14;8.80;;;3.25;;
44822;SDS011;51097;51.984;5.650;2023-07-13T01:12:40;8.68;;;2.50;;
44822;SDS011;51097;51.984;5.650;2023-07-13T01:15:33;5.53;;;2.30;;
44822;SDS011;51097;51.984;5.650;2023-07-13T01:18:30;5.28;;;2.47;;
44822;SDS011;51097;51.984;5.650;2023-07-13T01:20:55;6.00;;;2.53;;
44822;SDS011;51097;51.984;5.650;2023-07-13T01:23:23;6.45;;;2.47;;
44822;SDS011;51097;51.984;5.650;2023-07-13T01:25:50;7.05;;;2.25;;
44822;SDS011;51097;51.984;5.650;2023-07-13T01:28:17;6.72;;;2.40;;
44822;SDS011;51097;51.984;5.650;2023-07-13T01:30:43;5.75;;;2.70;;
44822;SDS011;51097;51.984;5.650;2023-07-13T01:33:12;8.20;;;2.58;;
44822;SDS011;51097;51.984;5.650;2023-07-13T01:35:38;4.65;;;2.72;;
44822;SDS011;51097;51.984;5.650;2023-07-13T01:38:04;3.67;;;2.13;;
44822;SDS011;51097;51.984;5.650;2023-07-13T01:40:30;5.10;;;2.20;;
44822;SDS011;51097;51.984;5.650;2023-07-13T01:42:57;6.75;;;3.05;;
44822;SDS011;51097;51.984;5.650;2023-07-13T01:45:23;7.82;;;2.45;;
44822;SDS011;51097;51.984;5.650;2023-07-13T01:47:49;9.30;;;2.30;;
44822;SDS011;51097;51.984;5.650;2023-07-13T01:50:15;5.18;;;2.35;;
44822;SDS011;51097;51.984;5.650;2023-07-13T01:52:40;6.25;;;2.67;;
44822;SDS011;51097;51.984;5.650;2023-07-13T01:55:06;4.30;;;2.55;;
44822;SDS011;51097;51.984;5.650;2023-07-13T01:57:32;6.28;;;2.88;;
44822;SDS011;51097;51.984;5.650;2023-07-13T01:59:58;8.05;;;2.88;;
44822;SDS011;51097;51.984;5.650;2023-07-13T02:02:24;5.10;;;2.50;;
44822;SDS011;51097;51.984;5.650;2023-07-13T02:04:49;7.65;;;3.17;;
44822;SDS011;51097;51.984;5.650;2023-07-13T02:07:15;7.07;;;3.70;;
44822;SDS011;51097;51.984;5.650;2023-07-13T02:09:41;5.88;;;3.00;;
44822;SDS011;51097;51.984;5.650;2023-07-13T02:12:07;4.82;;;2.75;;
44822;SDS011;51097;51.984;5.650;2023-07-13T02:14:33;7.03;;;3.58;;
44822;SDS011;51097;51.984;5.650;2023-07-13T02:16:59;4.97;;;2.88;;
44822;SDS011;51097;51.984;5.650;2023-07-13T02:19:24;9.80;;;3.42;;
44822;SDS011;51097;51.984;5.650;2023-07-13T02:21:50;8.27;;;2.92;;
44822;SDS011;51097;51.984;5.650;2023-07-13T02:24:16;8.88;;;3.63;;
44822;SDS011;51097;51.984;5.650;2023-07-13T02:26:44;8.90;;;3.88;;
44822;SDS011;51097;51.984;5.650;2023-07-13T02:29:10;6.35;;;2.75;;
44822;SDS011;51097;51.984;5.650;2023-07-13T02:31:36;11.20;;;3.33;;
44822;SDS011;51097;51.984;5.650;2023-07-13T02:34:01;8.77;;;3.58;;
44822;SDS011;51097;51.984;5.650;2023-07-13T02:36:29;7.43;;;3.42;;
44822;SDS011;51097;51.984;5.650;2023-07-13T02:38:55;11.20;;;3.88;;
44822;SDS011;51097;51.984;5.650;2023-07-13T02:41:21;8.90;;;3.42;;
44822;SDS011;51097;51.984;5.650;2023-07-13T02:43:48;6.90;;;2.90;;
44822;SDS011;51097;51.984;5.650;2023-07-13T02:46:13;11.32;;;3.85;;
44822;SDS011;51097;51.984;5.650;2023-07-13T02:48:39;9.32;;;3.55;;
44822;SDS011;51097;51.984;5.650;2023-07-13T02:51:06;7.55;;;3.40;;
44822;SDS011;51097;51.984;5.650;2023-07-13T02:53:33;10.98;;;4.07;;
44822;SDS011;51097;51.984;5.650;2023-07-13T02:56:00;10.02;;;3.67;;
44822;SDS011;51097;51.984;5.650;2023-07-13T02:58:25;8.90;;;3.83;;
44822;SDS011;51097;51.984;5.650;2023-07-13T03:00:51;12.93;;;4.30;;
44822;SDS011;51097;51.984;5.650;2023-07-13T03:03:17;13.07;;;4.35;;
44822;SDS011;51097;51.984;5.650;2023-07-13T03:05:44;7.43;;;3.75;;
44822;SDS011;51097;51.984;5.650;2023-07-13T03:08:15;12.98;;;4.63;;
44822;SDS011;51097;51.984;5.650;2023-07-13T03:10:40;9.52;;;4.57;;
44822;SDS011;51097;51.984;5.650;2023-07-13T03:13:06;8.95;;;4.65;;
44822;SDS011;51097;51.984;5.650;2023-07-13T03:15:32;8.50;;;4.25;;
44822;SDS011;51097;51.984;5.650;2023-07-13T03:17:58;12.32;;;5.18;;
44822;SDS011;51097;51.984;5.650;2023-07-13T03:20:24;11.65;;;4.30;;
44822;SDS011;51097;51.984;5.650;2023-07-13T03:22:49;10.43;;;3.83;;
44822;SDS011;51097;51.984;5.650;2023-07-13T03:25:15;10.98;;;5.00;;
44822;SDS011;51097;51.984;5.650;2023-07-13T03:27:41;10.63;;;4.75;;
44822;SDS011;51097;51.984;5.650;2023-07-13T03:30:06;10.25;;;4.70;;
44822;SDS011;51097;51.984;5.650;2023-07-13T03:32:33;7.72;;;3.80;;
44822;SDS011;51097;51.984;5.650;2023-07-13T03:34:58;10.77;;;4.72;;
44822;SDS011;51097;51.984;5.650;2023-07-13T03:37:24;10.60;;;4.97;;
44822;SDS011;51097;51.984;5.650;2023-07-13T03:39:50;13.80;;;4.75;;
44822;SDS011;51097;51.984;5.650;2023-07-13T03:42:15;7.38;;;4.03;;
44822;SDS011;51097;51.984;5.650;2023-07-13T03:44:41;12.52;;;5.05;;
44822;SDS011;51097;51.984;5.650;2023-07-13T03:47:11;16.05;;;5.00;;
44822;SDS011;51097;51.984;5.650;2023-07-13T03:49:36;15.30;;;5.47;;
44822;SDS011;51097;51.984;5.650;2023-07-13T03:52:02;8.43;;;5.07;;
44822;SDS011;51097;51.984;5.650;2023-07-13T03:54:28;17.27;;;5.78;;
44822;SDS011;51097;51.984;5.650;2023-07-13T03:56:54;13.35;;;5.63;;
44822;SDS011;51097;51.984;5.650;2023-07-13T03:59:20;17.95;;;4.80;;
44822;SDS011;51097;51.984;5.650;2023-07-13T04:01:45;13.43;;;5.13;;
44822;SDS011;51097;51.984;5.650;2023-07-13T04:04:11;12.35;;;5.88;;
44822;SDS011;51097;51.984;5.650;2023-07-13T04:06:37;16.25;;;5.18;;
44822;SDS011;51097;51.984;5.650;2023-07-13T04:09:03;12.95;;;5.50;;
44822;SDS011;51097;51.984;5.650;2023-07-13T04:11:33;11.50;;;5.40;;
44822;SDS011;51097;51.984;5.650;2023-07-13T04:14:01;10.45;;;5.45;;
44822;SDS011;51097;51.984;5.650;2023-07-13T04:16:27;12.68;;;5.32;;
44822;SDS011;51097;51.984;5.650;2023-07-13T04:18:54;17.15;;;6.32;;
44822;SDS011;51097;51.984;5.650;2023-07-13T04:23:49;12.70;;;5.03;;
44822;SDS011;51097;51.984;5.650;2023-07-13T04:26:15;8.43;;;5.32;;
44822;SDS011;51097;51.984;5.650;2023-07-13T04:28:41;11.45;;;5.93;;
44822;SDS011;51097;51.984;5.650;2023-07-13T04:31:06;11.45;;;5.47;;
44822;SDS011;51097;51.984;5.650;2023-07-13T04:33:32;18.30;;;6.55;;
44822;SDS011;51097;51.984;5.650;2023-07-13T04:35:58;9.32;;;5.55;;
44822;SDS011;51097;51.984;5.650;2023-07-13T04:38:27;11.30;;;6.53;;
44822;SDS011;51097;51.984;5.650;2023-07-13T04:40:55;12.93;;;6.07;;
44822;SDS011;51097;51.984;5.650;2023-07-13T04:43:22;13.57;;;6.00;;
44822;SDS011;51097;51.984;5.650;2023-07-13T04:45:49;20.50;;;7.10;;
44822;SDS011;51097;51.984;5.650;2023-07-13T04:48:16;12.50;;;6.97;;
44822;SDS011;51097;51.984;5.650;2023-07-13T04:50:41;17.08;;;8.25;;
44822;SDS011;51097;51.984;5.650;2023-07-13T04:53:08;13.27;;;6.43;;
44822;SDS011;51097;51.984;5.650;2023-07-13T04:55:35;13.35;;;6.20;;
44822;SDS011;51097;51.984;5.650;2023-07-13T04:58:01;15.52;;;7.70;;
44822;SDS011;51097;51.984;5.650;2023-07-13T05:00:28;12.05;;;6.68;;
44822;SDS011;51097;51.984;5.650;2023-07-13T05:02:55;13.88;;;6.88;;
44822;SDS011;51097;51.984;5.650;2023-07-13T05:05:22;19.20;;;8.05;;
44822;SDS011;51097;51.984;5.650;2023-07-13T05:07:48;17.92;;;7.43;;
44822;SDS011;51097;51.984;5.650;2023-07-13T05:10:14;15.70;;;7.50;;
44822;SDS011;51097;51.984;5.650;2023-07-13T05:12:40;18.30;;;7.85;;
44822;SDS011;51097;51.984;5.650;2023-07-13T05:15:06;21.85;;;8.73;;
44822;SDS011;51097;51.984;5.650;2023-07-13T05:17:32;15.77;;;7.32;;
44822;SDS011;51097;51.984;5.650;2023-07-13T05:19:58;13.57;;;6.18;;
44822;SDS011;51097;51.984;5.650;2023-07-13T05:22:24;17.40;;;7.95;;
44822;SDS011;51097;51.984;5.650;2023-07-13T05:24:50;17.77;;;8.18;;
44822;SDS011;51097;51.984;5.650;2023-07-13T05:27:16;16.67;;;6.97;;
44822;SDS011;51097;51.984;5.650;2023-07-13T05:29:41;22.40;;;7.97;;
44822;SDS011;51097;51.984;5.650;2023-07-13T05:32:07;15.82;;;7.55;;
44822;SDS011;51097;51.984;5.650;2023-07-13T05:34:33;14.82;;;7.75;;
44822;SDS011;51097;51.984;5.650;2023-07-13T05:36:58;16.05;;;8.40;;
44822;SDS011;51097;51.984;5.650;2023-07-13T05:39:24;14.75;;;8.10;;
44822;SDS011;51097;51.984;5.650;2023-07-13T05:41:51;19.80;;;8.15;;
44822;SDS011;51097;51.984;5.650;2023-07-13T05:44:16;20.35;;;8.90;;
44822;SDS011;51097;51.984;5.650;2023-07-13T05:46:43;19.83;;;8.75;;
44822;SDS011;51097;51.984;5.650;2023-07-13T05:49:09;17.02;;;7.45;;
44822;SDS011;51097;51.984;5.650;2023-07-13T05:51:35;19.00;;;8.23;;
44822;SDS011;51097;51.984;5.650;2023-07-13T05:54:00;23.98;;;9.20;;
44822;SDS011;51097;51.984;5.650;2023-07-13T05:56:26;17.65;;;9.32;;
44822;SDS011;51097;51.984;5.650;2023-07-13T05:58:52;16.27;;;10.30;;
44822;SDS011;51097;51.984;5.650;2023-07-13T06:01:17;21.85;;;11.27;;
44822;SDS011;51097;51.984;5.650;2023-07-13T06:03:45;21.00;;;10.20;;
44822;SDS011;51097;51.984;5.650;2023-07-13T06:06:11;19.55;;;11.77;;
44822;SDS011;51097;51.984;5.650;2023-07-13T06:08:37;21.70;;;11.82;;
44822;SDS011;51097;51.984;5.650;2023-07-13T06:11:23;22.65;;;12.52;;
44822;SDS011;51097;51.984;5.650;2023-07-13T06:13:50;22.25;;;12.65;;
44822;SDS011;51097;51.984;5.650;2023-07-13T06:16:17;26.52;;;13.63;;
44822;SDS011;51097;51.984;5.650;2023-07-13T06:18:42;26.73;;;15.05;;
44822;SDS011;51097;51.984;5.650;2023-07-13T06:21:10;26.70;;;13.45;;
44822;SDS011;51097;51.984;5.650;2023-07-13T06:23:38;29.17;;;15.73;;
44822;SDS011;51097;51.984;5.650;2023-07-13T06:26:04;25.30;;;15.80;;
44822;SDS011;51097;51.984;5.650;2023-07-13T06:28:31;22.88;;;14.48;;
44822;SDS011;51097;51.984;5.650;2023-07-13T06:30:57;22.50;;;14.02;;
44822;SDS011;51097;51.984;5.650;2023-07-13T06:33:24;28.92;;;14.57;;
44822;SDS011;51097;51.984;5.650;2023-07-13T06:35:50;28.13;;;16.02;;
44822;SDS011;51097;51.984;5.650;2023-07-13T06:38:15;28.38;;;15.60;;
44822;SDS011;51097;51.984;5.650;2023-07-13T06:40:41;28.30;;;16.13;;
44822;SDS011;51097;51.984;5.650;2023-07-13T06:43:07;30.73;;;17.13;;
44822;SDS011;51097;51.984;5.650;2023-07-13T06:45:35;25.58;;;15.20;;
44822;SDS011;51097;51.984;5.650;2023-07-13T06:48:05;24.73;;;14.52;;
44822;SDS011;51097;51.984;5.650;2023-07-13T06:50:31;26.02;;;16.42;;
44822;SDS011;51097;51.984;5.650;2023-07-13T06:52:57;23.75;;;14.52;;
44822;SDS011;51097;51.984;5.650;2023-07-13T06:55:24;26.98;;;16.00;;
44822;SDS011;51097;51.984;5.650;2023-07-13T06:57:50;27.63;;;16.02;;
44822;SDS011;51097;51.984;5.650;2023-07-13T07:00:16;20.05;;;14.13;;
44822;SDS011;51097;51.984;5.650;2023-07-13T07:02:52;21.33;;;14.25;;
44822;SDS011;51097;51.984;5.650;2023-07-13T07:05:18;26.92;;;15.38;;
44822;SDS011;51097;51.984;5.650;2023-07-13T07:07:47;20.83;;;15.80;;
44822;SDS011;51097;51.984;5.650;2023-07-13T07:10:16;23.85;;;14.43;;
44822;SDS011;51097;51.984;5.650;2023-07-13T07:12:42;26.58;;;15.10;;
44822;SDS011;51097;51.984;5.650;2023-07-13T07:15:08;21.05;;;16.58;;
44822;SDS011;51097;51.984;5.650;2023-07-13T07:17:34;24.40;;;15.95;;
44822;SDS011;51097;51.984;5.650;2023-07-13T07:19:59;26.13;;;16.58;;
44822;SDS011;51097;51.984;5.650;2023-07-13T07:22:25;24.95;;;17.02;;
44822;SDS011;51097;51.984;5.650;2023-07-13T07:24:52;24.38;;;15.95;;
44822;SDS011;51097;51.984;5.650;2023-07-13T07:27:18;27.83;;;16.13;;
44822;SDS011;51097;51.984;5.650;2023-07-13T07:29:44;23.77;;;15.77;;
44822;SDS011;51097;51.984;5.650;2023-07-13T07:32:10;23.40;;;14.90;;
44822;SDS011;51097;51.984;5.650;2023-07-13T07:34:36;19.77;;;14.60;;
44822;SDS011;51097;51.984;5.650;2023-07-13T07:37:02;23.35;;;16.40;;
44822;SDS011;51097;51.984;5.650;2023-07-13T07:39:28;22.98;;;14.95;;
44822;SDS011;51097;51.984;5.650;2023-07-13T07:41:54;35.63;;;16.02;;
44822;SDS011;51097;51.984;5.650;2023-07-13T07:44:20;21.58;;;15.25;;
44822;SDS011;51097;51.984;5.650;2023-07-13T07:46:46;24.38;;;16.30;;
44822;SDS011;51097;51.984;5.650;2023-07-13T07:49:11;21.88;;;15.75;;
44822;SDS011;51097;51.984;5.650;2023-07-13T07:51:37;20.70;;;15.07;;
44822;SDS011;51097;51.984;5.650;2023-07-13T07:54:03;24.50;;;14.15;;
44822;SDS011;51097;51.984;5.650;2023-07-13T07:56:29;24.23;;;14.13;;
44822;SDS011;51097;51.984;5.650;2023-07-13T07:58:55;17.73;;;12.55;;
44822;SDS011;51097;51.984;5.650;2023-07-13T08:01:21;21.58;;;12.32;;
44822;SDS011;51097;51.984;5.650;2023-07-13T08:03:47;24.08;;;13.95;;
44822;SDS011;51097;51.984;5.650;2023-07-13T08:06:13;17.40;;;13.07;;
44822;SDS011;51097;51.984;5.650;2023-07-13T08:08:39;17.90;;;12.57;;
44822;SDS011;51097;51.984;5.650;2023-07-13T08:11:05;23.05;;;13.93;;
44822;SDS011;51097;51.984;5.650;2023-07-13T08:13:33;15.95;;;10.88;;
44822;SDS011;51097;51.984;5.650;2023-07-13T08:15:59;19.30;;;12.85;;
44822;SDS011;51097;51.984;5.650;2023-07-13T08:18:25;21.52;;;12.73;;
44822;SDS011;51097;51.984;5.650;2023-07-13T08:20:53;19.38;;;11.85;;
44822;SDS011;51097;51.984;5.650;2023-07-13T08:23:21;20.92;;;12.20;;
44822;SDS011;51097;51.984;5.650;2023-07-13T08:25:50;16.92;;;13.75;;
44822;SDS011;51097;51.984;5.650;2023-07-13T08:28:17;28.40;;;14.23;;
44822;SDS011;51097;51.984;5.650;2023-07-13T08:30:43;19.45;;;12.77;;
44822;SDS011;51097;51.984;5.650;2023-07-13T08:33:09;17.00;;;12.25;;
44822;SDS011;51097;51.984;5.650;2023-07-13T08:35:35;14.60;;;12.77;;
44822;SDS011;51097;51.984;5.650;2023-07-13T08:38:00;27.05;;;13.90;;
44822;SDS011;51097;51.984;5.650;2023-07-13T08:40:27;17.95;;;13.07;;
44822;SDS011;51097;51.984;5.650;2023-07-13T08:42:57;17.25;;;11.13;;
44822;SDS011;51097;51.984;5.650;2023-07-13T08:48:31;11.40;;;7.82;;
44822;SDS011;51097;51.984;5.650;2023-07-13T08:51:02;13.18;;;7.22;;
44822;SDS011;51097;51.984;5.650;2023-07-13T08:53:36;11.25;;;7.10;;
44822;SDS011;51097;51.984;5.650;2023-07-13T08:56:09;8.02;;;6.65;;
44822;SDS011;51097;51.984;5.650;2023-07-13T08:58:41;12.38;;;7.00;;
44822;SDS011;51097;51.984;5.650;2023-07-13T09:01:27;13.80;;;7.38;;
44822;SDS011;51097;51.984;5.650;2023-07-13T09:04:15;8.50;;;5.20;;
44822;SDS011;51097;51.984;5.650;2023-07-13T09:12:11;9.38;;;4.70;;
44822;SDS011;51097;51.984;5.650;2023-07-13T09:14:47;9.85;;;5.22;;
44822;SDS011;51097;51.984;5.650;2023-07-13T09:17:20;10.95;;;4.63;;
44822;SDS011;51097;51.984;5.650;2023-07-13T09:19:57;8.15;;;4.68;;
44822;SDS011;51097;51.984;5.650;2023-07-13T09:22:29;8.98;;;3.90;;
44822;SDS011;51097;51.984;5.650;2023-07-13T09:25:05;10.20;;;4.43;;
44822;SDS011;51097;51.984;5.650;2023-07-13T09:27:50;9.73;;;4.43;;
44822;SDS011;51097;51.984;5.650;2023-07-13T09:33:03;6.05;;;4.28;;
44822;SDS011;51097;51.984;5.650;2023-07-13T09:35:29;9.65;;;5.60;;
44822;SDS011;51097;51.984;5.650;2023-07-13T09:38:14;11.25;;;5.57;;
44822;SDS011;51097;51.984;5.650;2023-07-13T09:41:06;10.60;;;6.05;;
44822;SDS011;51097;51.984;5.650;2023-07-13T09:44:07;11.30;;;6.32;;
44822;SDS011;51097;51.984;5.650;2023-07-13T09:46:36;8.43;;;5.88;;
44822;SDS011;51097;51.984;5.650;2023-07-13T09:49:02;8.20;;;5.53;;
44822;SDS011;51097;51.984;5.650;2023-07-13T09:51:28;11.45;;;5.78;;
44822;SDS011;51097;51.984;5.650;2023-07-13T09:53:54;12.00;;;5.45;;
44822;SDS011;51097;51.984;5.650;2023-07-13T09:56:21;10.07;;;5.03;;
44822;SDS011;51097;51.984;5.650;2023-07-13T09:58:48;7.40;;;5.35;;
44822;SDS011;51097;51.984;5.650;2023-07-13T10:01:14;6.05;;;4.10;;
44822;SDS011;51097;51.984;5.650;2023-07-13T10:03:42;13.75;;;5.38;;
44822;SDS011;51097;51.984;5.650;2023-07-13T10:06:19;11.43;;;4.82;;
44822;SDS011;51097;51.984;5.650;2023-07-13T10:08:49;9.57;;;4.80;;
44822;SDS011;51097;51.984;5.650;2023-07-13T10:11:26;8.02;;;4.22;;
44822;SDS011;51097;51.984;5.650;2023-07-13T10:16:28;13.68;;;5.65;;
44822;SDS011;51097;51.984;5.650;2023-07-13T10:18:58;11.50;;;6.35;;
44822;SDS011;51097;51.984;5.650;2023-07-13T10:21:29;10.23;;;4.90;;
44822;SDS011;51097;51.984;5.650;2023-07-13T10:24:05;12.90;;;5.32;;
44822;SDS011;51097;51.984;5.650;2023-07-13T10:26:41;9.73;;;4.35;;
44822;SDS011;51097;51.984;5.650;2023-07-13T10:29:12;9.75;;;4.57;;
44822;SDS011;51097;51.984;5.650;2023-07-13T10:31:40;12.77;;;5.20;;
44822;SDS011;51097;51.984;5.650;2023-07-13T10:34:10;10.52;;;4.70;;
44822;SDS011;51097;51.984;5.650;2023-07-13T10:36:40;7.88;;;4.90;;
44822;SDS011;51097;51.984;5.650;2023-07-13T10:39:09;7.55;;;4.00;;
44822;SDS011;51097;51.984;5.650;2023-07-13T10:41:41;7.28;;;3.10;;
44822;SDS011;51097;51.984;5.650;2023-07-13T10:44:13;5.35;;;2.83;;
44822;SDS011;51097;51.984;5.650;2023-07-13T10:46:51;4.32;;;3.20;;
44822;SDS011;51097;51.984;5.650;2023-07-13T10:49:22;6.05;;;2.70;;
44822;SDS011;51097;51.984;5.650;2023-07-13T10:51:48;5.80;;;2.83;;
44822;SDS011;51097;51.984;5.650;2023-07-13T10:56:43;7.22;;;3.28;;
44822;SDS011;51097;51.984;5.650;2023-07-13T10:59:17;7.80;;;3.83;;
44822;SDS011;51097;51.984;5.650;2023-07-13T11:04:19;6.47;;;4.18;;
44822;SDS011;51097;51.984;5.650;2023-07-13T11:06:47;7.45;;;5.00;;
44822;SDS011;51097;51.984;5.650;2023-07-13T11:09:24;5.88;;;4.10;;
44822;SDS011;51097;51.984;5.650;2023-07-13T11:12:10;4.53;;;4.13;;
44822;SDS011;51097;51.984;5.650;2023-07-13T11:15:14;6.00;;;3.47;;
44822;SDS011;51097;51.984;5.650;2023-07-13T11:17:54;8.13;;;4.28;;
44822;SDS011;51097;51.984;5.650;2023-07-13T11:20:35;7.82;;;4.35;;
44822;SDS011;51097;51.984;5.650;2023-07-13T11:23:08;8.00;;;4.38;;
44822;SDS011;51097;51.984;5.650;2023-07-13T11:25:37;5.97;;;3.17;;
44822;SDS011;51097;51.984;5.650;2023-07-13T11:28:05;10.52;;;3.60;;
44822;SDS011;51097;51.984;5.650;2023-07-13T11:35:59;7.82;;;3.17;;
44822;SDS011;51097;51.984;5.650;2023-07-13T11:38:45;6.70;;;3.20;;
44822;SDS011;51097;51.984;5.650;2023-07-13T11:41:22;5.75;;;3.85;;
44822;SDS011;51097;51.984;5.650;2023-07-13T11:43:55;5.88;;;3.13;;
44822;SDS011;51097;51.984;5.650;2023-07-13T11:46:33;7.70;;;3.25;;
44822;SDS011;51097;51.984;5.650;2023-07-13T11:48:58;7.70;;;4.07;;
44822;SDS011;51097;51.984;5.650;2023-07-13T11:51:28;4.90;;;4.05;;
44822;SDS011;51097;51.984;5.650;2023-07-13T11:53:57;5.43;;;3.30;;
44822;SDS011;51097;51.984;5.650;2023-07-13T11:56:27;6.75;;;3.95;;
44822;SDS011;51097;51.984;5.650;2023-07-13T11:58:54;3.78;;;2.80;;
44822;SDS011;51097;51.984;5.650;2023-07-13T12:01:30;3.97;;;2.33;;
44822;SDS011;51097;51.984;5.650;2023-07-13T12:03:58;6.10;;;2.88;;
44822;SDS011;51097;51.984;5.650;2023-07-13T12:09:00;6.53;;;2.95;;
44822;SDS011;51097;51.984;5.650;2023-07-13T12:11:28;5.82;;;2.53;;
44822;SDS011;51097;51.984;5.650;2023-07-13T12:13:55;7.50;;;2.75;;
44822;SDS011;51097;51.984;5.650;2023-07-13T12:16:23;5.15;;;2.95;;
44822;SDS011;51097;51.984;5.650;2023-07-13T12:18:53;5.00;;;3.47;;
44822;SDS011;51097;51.984;5.650;2023-07-13T12:21:21;5.93;;;3.05;;
44822;SDS011;51097;51.984;5.650;2023-07-13T12:23:52;6.55;;;3.33;;
44822;SDS011;51097;51.984;5.650;2023-07-13T12:26:18;5.95;;;2.88;;
44822;SDS011;51097;51.984;5.650;2023-07-13T12:28:46;6.78;;;2.42;;
44822;SDS011;51097;51.984;5.650;2023-07-13T12:31:30;4.72;;;3.00;;
44822;SDS011;51097;51.984;5.650;2023-07-13T12:34:00;4.18;;;2.92;;
44822;SDS011;51097;51.984;5.650;2023-07-13T12:36:29;7.18;;;2.85;;
44822;SDS011;51097;51.984;5.650;2023-07-13T12:38:59;5.90;;;3.22;;
44822;SDS011;51097;51.984;5.650;2023-07-13T12:41:29;5.65;;;2.50;;
44822;SDS011;51097;51.984;5.650;2023-07-13T12:43:55;4.70;;;2.38;;
44822;SDS011;51097;51.984;5.650;2023-07-13T12:46:23;3.67;;;2.13;;
44822;SDS011;51097;51.984;5.650;2023-07-13T12:48:50;4.18;;;2.30;;
44822;SDS011;51097;51.984;5.650;2023-07-13T12:51:17;4.68;;;2.38;;
44822;SDS011;51097;51.984;5.650;2023-07-13T12:53:50;6.82;;;3.10;;
44822;SDS011;51097;51.984;5.650;2023-07-13T12:56:22;3.25;;;2.38;;
44822;SDS011;51097;51.984;5.650;2023-07-13T12:58:54;3.90;;;2.42;;
44822;SDS011;51097;51.984;5.650;2023-07-13T13:01:27;4.10;;;2.22;;
44822;SDS011;51097;51.984;5.650;2023-07-13T13:03:54;3.65;;;2.30;;
44822;SDS011;51097;51.984;5.650;2023-07-13T13:08:55;7.43;;;2.30;;
44822;SDS011;51097;51.984;5.650;2023-07-13T13:11:27;4.18;;;2.30;;
44822;SDS011;51097;51.984;5.650;2023-07-13T13:13:53;4.15;;;2.60;;
44822;SDS011;51097;51.984;5.650;2023-07-13T13:16:43;3.40;;;2.03;;
44822;SDS011;51097;51.984;5.650;2023-07-13T13:19:16;6.28;;;2.22;;
44822;SDS011;51097;51.984;5.650;2023-07-13T13:21:46;5.05;;;2.10;;
44822;SDS011;51097;51.984;5.650;2023-07-13T13:24:13;3.60;;;2.15;;
44822;SDS011;51097;51.984;5.650;2023-07-13T13:26:41;3.40;;;2.25;;
44822;SDS011;51097;51.984;5.650;2023-07-13T13:29:21;3.53;;;2.28;;
44822;SDS011;51097;51.984;5.650;2023-07-13T13:31:52;5.93;;;2.28;;
44822;SDS011;51097;51.984;5.650;2023-07-13T13:39:22;4.18;;;2.70;;
44822;SDS011;51097;51.984;5.650;2023-07-13T13:41:50;3.50;;;2.70;;
44822;SDS011;51097;51.984;5.650;2023-07-13T13:44:18;3.92;;;2.50;;
44822;SDS011;51097;51.984;5.650;2023-07-13T13:46:48;3.88;;;2.30;;
44822;SDS011;51097;51.984;5.650;2023-07-13T13:49:17;4.05;;;2.47;;
44822;SDS011;51097;51.984;5.650;2023-07-13T13:54:12;2.90;;;2.38;;
44822;SDS011;51097;51.984;5.650;2023-07-13T13:56:41;5.65;;;2.65;;
44822;SDS011;51097;51.984;5.650;2023-07-13T13:59:07;7.65;;;2.80;;
44822;SDS011;51097;51.984;5.650;2023-07-13T14:01:33;6.57;;;2.47;;
44822;SDS011;51097;51.984;5.650;2023-07-13T14:04:00;4.05;;;2.65;;
44822;SDS011;51097;51.984;5.650;2023-07-13T14:06:25;3.55;;;2.95;;
44822;SDS011;51097;51.984;5.650;2023-07-13T14:08:52;3.63;;;2.25;;
44822;SDS011;51097;51.984;5.650;2023-07-13T14:11:20;4.15;;;2.80;;
44822;SDS011;51097;51.984;5.650;2023-07-13T14:13:54;8.95;;;2.58;;
44822;SDS011;51097;51.984;5.650;2023-07-13T14:16:22;3.00;;;2.58;;
44822;SDS011;51097;51.984;5.650;2023-07-13T14:18:52;5.93;;;2.60;;
44822;SDS011;51097;51.984;5.650;2023-07-13T14:21:20;5.82;;;2.45;;
44822;SDS011;51097;51.984;5.650;2023-07-13T14:23:47;4.25;;;2.78;;
44822;SDS011;51097;51.984;5.650;2023-07-13T14:26:14;5.10;;;2.83;;
44822;SDS011;51097;51.984;5.650;2023-07-13T14:28:43;5.43;;;2.60;;
44822;SDS011;51097;51.984;5.650;2023-07-13T14:31:11;3.40;;;2.42;;
44822;SDS011;51097;51.984;5.650;2023-07-13T14:33:38;3.75;;;2.00;;
44822;SDS011;51097;51.984;5.650;2023-07-13T14:36:09;3.85;;;2.63;;
44822;SDS011;51097;51.984;5.650;2023-07-13T14:38:47;4.32;;;2.30;;
44822;SDS011;51097;51.984;5.650;2023-07-13T14:41:13;5.40;;;2.50;;
44822;SDS011;51097;51.984;5.650;2023-07-13T14:43:39;3.47;;;2.33;;
44822;SDS011;51097;51.984;5.650;2023-07-13T14:46:04;4.68;;;2.83;;
44822;SDS011;51097;51.984;5.650;2023-07-13T14:48:31;2.70;;;2.42;;
44822;SDS011;51097;51.984;5.650;2023-07-13T14:50:57;5.15;;;2.60;;
44822;SDS011;51097;51.984;5.650;2023-07-13T14:53:26;2.63;;;2.10;;
44822;SDS011;51097;51.984;5.650;2023-07-13T14:55:55;2.92;;;2.33;;
44822;SDS011;51097;51.984;5.650;2023-07-13T14:58:21;5.03;;;2.85;;
44822;SDS011;51097;51.984;5.650;2023-07-13T15:00:46;3.13;;;2.13;;
44822;SDS011;51097;51.984;5.650;2023-07-13T15:03:16;5.28;;;2.42;;
44822;SDS011;51097;51.984;5.650;2023-07-13T15:05:46;4.35;;;2.50;;
44822;SDS011;51097;51.984;5.650;2023-07-13T15:08:13;4.80;;;2.67;;
44822;SDS011;51097;51.984;5.650;2023-07-13T15:10:40;3.42;;;2.53;;
44822;SDS011;51097;51.984;5.650;2023-07-13T15:13:19;3.38;;;2.40;;
44822;SDS011;51097;51.984;5.650;2023-07-13T15:15:47;4.32;;;2.42;;
44822;SDS011;51097;51.984;5.650;2023-07-13T15:18:15;3.20;;;1.98;;
44822;SDS011;51097;51.984;5.650;2023-07-13T15:20:43;2.45;;;2.20;;
44822;SDS011;51097;51.984;5.650;2023-07-13T15:23:13;6.55;;;2.85;;
44822;SDS011;51097;51.984;5.650;2023-07-13T15:25:41;4.28;;;2.40;;
44822;SDS011;51097;51.984;5.650;2023-07-13T15:28:08;3.58;;;2.65;;